createdAt,value
2022-11-11T00:01:49.760Z,71.73
2022-11-11T00:04:37.498Z,71.70
2022-11-11T00:07:25.159Z,71.69
2022-11-11T00:10:13.481Z,71.56
2022-11-11T00:13:03.268Z,71.61
2022-11-11T00:15:51.760Z,71.70
2022-11-11T00:18:59.750Z,71.83
2022-11-11T00:21:47.332Z,71.93
2022-11-11T00:24:53.604Z,71.85
2022-11-11T00:27:41.517Z,71.86
2022-11-11T00:30:31.875Z,71.92
2022-11-11T00:33:19.533Z,71.97
2022-11-11T00:36:08.464Z,72.00
2022-11-11T00:38:58.433Z,71.93
2022-11-11T00:41:46.542Z,71.99
2022-11-11T00:44:33.884Z,71.97
2022-11-11T00:47:40.734Z,72.02
2022-11-11T00:50:48.563Z,72.09
2022-11-11T00:53:39.116Z,72.23
2022-11-11T00:56:29.600Z,72.23
2022-11-11T00:59:20.053Z,72.27
2022-11-11T01:02:08.236Z,72.22
2022-11-11T01:04:58.740Z,72.28
2022-11-11T01:07:52.035Z,72.33
2022-11-11T01:10:42.938Z,72.44
2022-11-11T01:13:33.857Z,72.35
2022-11-11T01:16:26.151Z,72.40
2022-11-11T01:19:14.790Z,72.41
2022-11-11T01:22:03.376Z,72.41
2022-11-11T01:24:53.617Z,72.44
2022-11-11T01:27:41.534Z,72.55
2022-11-11T01:30:29.083Z,72.59
2022-11-11T01:33:16.771Z,72.58
2022-11-11T01:36:28.605Z,72.58
2022-11-11T01:39:16.598Z,72.57
2022-11-11T01:42:04.251Z,72.67
2022-11-11T01:44:52.250Z,72.72
2022-11-11T01:48:23.441Z,72.80
2022-11-11T01:51:29.552Z,72.80
2022-11-11T01:54:53.230Z,72.88
2022-11-11T01:57:57.945Z,72.96
2022-11-11T02:00:46.073Z,73.02
2022-11-11T02:03:40.529Z,72.92
2022-11-11T02:06:29.731Z,72.91
2022-11-11T02:09:17.755Z,72.82
2022-11-11T02:12:28.670Z,72.65
2022-11-11T02:15:16.796Z,72.63
2022-11-11T02:18:05.961Z,72.57
2022-11-11T02:20:57.890Z,72.49
2022-11-11T02:24:17.828Z,72.58
2022-11-11T02:27:07.359Z,72.70
2022-11-11T02:29:58.279Z,72.68
2022-11-11T02:32:50.348Z,72.84
2022-11-11T02:35:55.380Z,72.99
2022-11-11T02:38:43.733Z,72.96
2022-11-11T02:41:50.422Z,72.86
2022-11-11T02:44:38.292Z,72.90
2022-11-11T02:47:28.022Z,72.94
2022-11-11T02:50:17.204Z,72.92
2022-11-11T02:53:05.184Z,72.94
2022-11-11T02:55:55.476Z,73.04
2022-11-11T02:58:44.338Z,73.21
2022-11-11T03:01:31.715Z,73.14
2022-11-11T03:04:19.493Z,73.19
2022-11-11T03:07:07.603Z,73.27
2022-11-11T03:09:58.749Z,73.23
2022-11-11T03:12:53.847Z,73.08
2022-11-11T03:15:48.371Z,73.11
2022-11-11T03:18:37.550Z,72.94
2022-11-11T03:22:49.624Z,72.67
2022-11-11T03:24:57.105Z,72.81
2022-11-11T03:27:46.199Z,72.84
2022-11-11T03:30:33.763Z,72.82
2022-11-11T03:33:21.891Z,72.92
2022-11-11T03:36:09.904Z,72.96
2022-11-11T03:38:57.324Z,72.92
2022-11-11T03:41:44.826Z,72.88
2022-11-11T03:44:32.715Z,72.86
2022-11-11T03:47:21.194Z,72.92
2022-11-11T03:50:09.429Z,72.97
2022-11-11T03:53:00.822Z,73.01
2022-11-11T03:55:50.538Z,72.90
2022-11-11T03:58:38.361Z,72.74
2022-11-11T04:01:44.742Z,72.78
2022-11-11T04:04:51.059Z,72.77
2022-11-11T04:07:58.638Z,72.72
2022-11-11T04:10:46.841Z,72.66
2022-11-11T04:13:54.316Z,72.58
2022-11-11T04:16:41.795Z,72.70
2022-11-11T04:19:47.560Z,72.67
2022-11-11T04:22:42.107Z,72.63
2022-11-11T04:25:48.085Z,72.56
2022-11-11T04:29:14.375Z,72.67
2022-11-11T04:32:25.180Z,72.62
2022-11-11T04:35:14.650Z,72.52
2022-11-11T04:38:20.937Z,72.54
2022-11-11T04:41:11.393Z,72.55
2022-11-11T04:44:17.868Z,72.48
2022-11-11T04:47:09.712Z,72.38
2022-11-11T04:49:58.871Z,72.29
2022-11-11T04:52:55.610Z,72.38
2022-11-11T04:56:05.437Z,72.38
2022-11-11T04:59:13.543Z,72.32
2022-11-11T05:02:32.804Z,72.18
2022-11-11T05:05:20.700Z,72.18
2022-11-11T05:08:27.027Z,72.20
2022-11-11T05:11:15.699Z,72.13
2022-11-11T05:14:24.823Z,72.12
2022-11-11T05:17:31.163Z,72.23
2022-11-11T05:20:39.165Z,72.23
2022-11-11T05:23:47.090Z,72.15
2022-11-11T05:26:37.644Z,72.19
2022-11-11T05:29:25.178Z,72.02
2022-11-11T05:32:18.651Z,72.02
2022-11-11T05:35:07.028Z,72.09
2022-11-11T05:38:12.850Z,71.94
2022-11-11T05:41:00.137Z,71.92
2022-11-11T05:43:48.071Z,71.86
2022-11-11T05:46:36.098Z,71.76
2022-11-11T05:49:25.253Z,71.71
2022-11-11T05:52:16.613Z,71.78
2022-11-11T05:55:05.098Z,71.61
2022-11-11T05:57:53.110Z,71.77
2022-11-11T06:00:41.062Z,71.74
2022-11-11T06:03:28.388Z,71.60
2022-11-11T06:06:16.143Z,71.67
2022-11-11T06:09:07.078Z,71.76
2022-11-11T06:11:56.124Z,71.73
2022-11-11T06:14:43.956Z,71.58
2022-11-11T06:17:34.139Z,71.78
2022-11-11T06:20:48.041Z,71.92
2022-11-11T06:23:35.695Z,72.02
2022-11-11T06:26:25.905Z,72.22
2022-11-11T06:29:17.200Z,72.24
2022-11-11T06:32:09.402Z,72.19
2022-11-11T06:34:57.510Z,72.03
2022-11-11T06:37:45.229Z,71.94
2022-11-11T06:40:33.424Z,72.01
2022-11-11T06:43:25.731Z,72.07
2022-11-11T06:46:23.550Z,71.94
2022-11-11T06:49:11.198Z,71.86
2022-11-11T06:52:00.845Z,71.88
2022-11-11T06:54:48.289Z,71.75
2022-11-11T06:57:37.556Z,71.71
2022-11-11T07:00:25.581Z,71.87
2022-11-11T07:03:20.290Z,72.02
2022-11-11T07:06:10.638Z,72.04
2022-11-11T07:08:58.373Z,71.92
2022-11-11T07:11:45.981Z,71.99
2022-11-11T07:14:35.487Z,71.94
2022-11-11T07:17:23.377Z,71.70
2022-11-11T07:20:12.082Z,71.59
2022-11-11T07:23:00.344Z,71.26
2022-11-11T07:25:47.973Z,70.88
2022-11-11T07:28:35.806Z,70.87
2022-11-11T07:31:23.821Z,70.89
2022-11-11T07:34:11.629Z,70.67
2022-11-11T07:36:59.338Z,70.49
2022-11-11T07:39:46.773Z,70.28
2022-11-11T07:42:38.870Z,70.09
2022-11-11T07:45:26.285Z,69.97
2022-11-11T07:48:18.248Z,69.87
2022-11-11T07:51:11.822Z,69.52
2022-11-11T07:54:03.161Z,69.58
2022-11-11T07:56:51.000Z,69.44
2022-11-11T07:59:50.720Z,69.24
2022-11-11T08:02:46.532Z,69.17
2022-11-11T08:05:34.778Z,69.08
2022-11-11T08:08:29.977Z,69.04
2022-11-11T08:11:38.318Z,69.04
2022-11-11T08:14:28.633Z,69.10
2022-11-11T08:17:16.268Z,68.69
2022-11-11T08:20:07.599Z,68.82
2022-11-11T08:23:28.391Z,68.38
2022-11-11T08:26:15.588Z,67.99
2022-11-11T08:29:05.472Z,67.87
2022-11-11T08:31:53.786Z,67.91
2022-11-11T08:34:46.595Z,67.83
2022-11-11T08:37:42.113Z,67.69
2022-11-11T08:40:30.049Z,67.46
2022-11-11T08:43:31.545Z,67.38
2022-11-11T08:46:22.656Z,67.37
2022-11-11T08:49:12.678Z,67.43
2022-11-11T08:52:00.986Z,67.59
2022-11-11T08:58:01.092Z,67.48
2022-11-11T09:00:52.870Z,67.26
2022-11-11T09:03:55.711Z,66.88
2022-11-11T09:07:09.474Z,66.66
2022-11-11T09:09:57.203Z,66.57
2022-11-11T09:12:45.018Z,66.43
2022-11-11T09:15:34.743Z,66.63
2022-11-11T09:18:22.591Z,66.72
2022-11-11T09:21:12.800Z,66.39
2022-11-11T09:24:04.335Z,66.16
2022-11-11T09:26:54.870Z,66.00
2022-11-11T09:29:46.693Z,65.94
2022-11-11T09:32:38.189Z,65.85
2022-11-11T09:35:40.223Z,65.58
2022-11-11T09:38:36.947Z,65.19
2022-11-11T09:41:57.419Z,65.40
2022-11-11T09:45:33.553Z,65.56
2022-11-11T09:48:34.661Z,65.36
2022-11-11T09:51:32.940Z,65.22
2022-11-11T09:54:50.573Z,65.22
2022-11-11T09:58:01.271Z,65.13
2022-11-11T10:01:14.745Z,64.96
2022-11-11T10:04:29.871Z,64.97
2022-11-11T10:07:41.508Z,64.88
2022-11-11T10:10:51.817Z,64.86
2022-11-11T10:13:44.399Z,64.74
2022-11-11T10:17:31.723Z,64.58
2022-11-11T10:20:45.989Z,64.61
2022-11-11T10:23:52.646Z,64.58
2022-11-11T10:26:50.460Z,64.41
2022-11-11T10:29:59.703Z,64.13
2022-11-11T10:33:15.060Z,64.23
2022-11-11T10:36:14.918Z,64.23
2022-11-11T10:39:36.295Z,64.32
2022-11-11T10:42:24.289Z,64.22
2022-11-11T10:45:52.599Z,64.12
2022-11-11T10:49:00.926Z,64.16
2022-11-11T10:52:08.470Z,64.27
2022-11-11T10:55:07.004Z,64.27
2022-11-11T10:58:07.615Z,64.04
2022-11-11T11:00:57.913Z,63.94
2022-11-11T11:03:55.744Z,64.08
2022-11-11T11:06:48.560Z,63.95
2022-11-11T11:09:45.988Z,63.87
2022-11-11T11:13:12.424Z,63.35
2022-11-11T11:16:15.038Z,63.42
2022-11-11T11:19:19.153Z,63.18
2022-11-11T11:22:06.769Z,62.87
2022-11-11T11:25:13.357Z,62.55
2022-11-11T11:28:15.686Z,62.62
2022-11-11T11:31:08.150Z,62.74
2022-11-11T11:33:57.200Z,62.60
2022-11-11T11:37:00.104Z,62.50
2022-11-11T11:39:49.209Z,62.44
2022-11-11T11:42:42.519Z,62.19
2022-11-11T11:45:33.525Z,62.44
2022-11-11T11:49:01.960Z,62.35
2022-11-11T11:52:02.566Z,62.47
2022-11-11T11:55:18.111Z,62.23
2022-11-11T11:58:15.186Z,62.15
2022-11-11T12:01:08.254Z,62.12
2022-11-11T12:04:39.560Z,61.99
2022-11-11T12:07:42.945Z,62.41
2022-11-11T12:11:19.021Z,62.46
2022-11-11T12:14:42.230Z,62.48
2022-11-11T12:17:59.325Z,62.31
2022-11-11T12:21:17.773Z,62.22
2022-11-11T12:24:31.518Z,62.41
2022-11-11T12:27:56.598Z,62.52
2022-11-11T12:31:20.007Z,62.48
2022-11-11T12:34:29.050Z,62.40
2022-11-11T12:37:54.400Z,62.23
2022-11-11T12:40:57.923Z,62.13
2022-11-11T12:44:10.746Z,62.11
2022-11-11T12:47:39.862Z,61.91
2022-11-11T12:51:02.895Z,61.83
2022-11-11T12:54:33.446Z,61.78
2022-11-11T12:58:01.959Z,61.70
2022-11-11T13:01:17.979Z,61.59
2022-11-11T13:04:31.274Z,61.41
2022-11-11T13:08:23.990Z,61.39
2022-11-11T13:11:38.367Z,61.55
2022-11-11T13:14:50.844Z,61.42
2022-11-11T13:17:38.683Z,61.46
2022-11-11T13:20:51.734Z,61.52
2022-11-11T13:23:40.774Z,61.57
2022-11-11T13:26:49.926Z,61.38
2022-11-11T13:29:51.042Z,61.42
2022-11-11T13:33:03.574Z,61.40
2022-11-11T13:36:06.634Z,61.34
2022-11-11T13:39:00.699Z,61.41
2022-11-11T13:41:53.790Z,61.45
2022-11-11T13:44:57.673Z,61.33
2022-11-11T13:47:48.450Z,61.32
2022-11-11T13:50:56.775Z,61.29
2022-11-11T13:53:49.548Z,61.33
2022-11-11T13:56:46.413Z,61.40
2022-11-11T13:59:46.901Z,61.40
2022-11-11T14:02:37.647Z,61.37
2022-11-11T14:05:27.338Z,61.36
2022-11-11T14:08:47.371Z,61.41
2022-11-11T14:11:37.562Z,61.63
2022-11-11T14:14:37.104Z,61.76
2022-11-11T14:17:30.789Z,61.84
2022-11-11T14:20:30.656Z,61.97
2022-11-11T14:23:18.664Z,62.02
2022-11-11T14:26:06.931Z,61.95
2022-11-11T14:29:07.227Z,62.06
2022-11-11T14:32:17.104Z,61.93
2022-11-11T14:35:28.138Z,61.99
2022-11-11T14:38:34.430Z,62.14
2022-11-11T14:41:43.740Z,62.21
2022-11-11T14:44:36.800Z,62.27
2022-11-11T14:47:42.006Z,62.37
2022-11-11T14:50:32.992Z,62.43
2022-11-11T14:53:49.609Z,62.53
2022-11-11T14:56:43.821Z,62.69
2022-11-11T14:59:32.813Z,62.72
2022-11-11T15:02:42.056Z,62.89
2022-11-11T15:05:50.140Z,62.90
2022-11-11T15:09:15.771Z,62.91
2022-11-11T15:12:24.462Z,62.99
2022-11-11T15:15:42.793Z,63.06
2022-11-11T15:19:02.395Z,63.19
2022-11-11T15:22:39.443Z,63.32
2022-11-11T15:26:05.958Z,63.51
2022-11-11T15:29:47.657Z,63.61
2022-11-11T15:33:04.918Z,63.66
2022-11-11T15:36:29.422Z,63.73
2022-11-11T15:39:23.237Z,63.77
2022-11-11T15:42:28.362Z,63.76
2022-11-11T15:45:32.728Z,63.64
2022-11-11T15:48:30.010Z,63.67
2022-11-11T15:51:23.141Z,63.83
2022-11-11T15:54:20.373Z,64.00
2022-11-11T15:57:36.776Z,64.21
2022-11-11T16:00:28.861Z,64.47
2022-11-11T16:03:40.081Z,64.64
2022-11-11T16:06:38.668Z,64.92
2022-11-11T16:09:33.725Z,65.03
2022-11-11T16:12:33.317Z,65.07
2022-11-11T16:15:45.906Z,65.09
2022-11-11T16:19:05.089Z,65.17
2022-11-11T16:22:11.596Z,65.23
2022-11-11T16:25:05.628Z,65.15
2022-11-11T16:28:07.240Z,65.25
2022-11-11T16:30:56.803Z,65.24
2022-11-11T16:33:45.293Z,65.18
2022-11-11T16:36:35.665Z,65.24
2022-11-11T16:39:27.899Z,65.27
2022-11-11T16:42:29.950Z,65.39
2022-11-11T16:45:23.944Z,65.51
2022-11-11T16:48:44.641Z,65.57
2022-11-11T16:51:50.680Z,65.68
2022-11-11T16:54:57.799Z,65.70
2022-11-11T16:57:46.709Z,65.91
2022-11-11T17:00:40.763Z,65.96
2022-11-11T17:03:35.582Z,66.00
2022-11-11T17:07:02.479Z,66.07
2022-11-11T17:09:50.604Z,66.23
2022-11-11T17:12:39.615Z,66.17
2022-11-11T17:15:31.588Z,66.21
2022-11-11T17:18:20.278Z,66.30
2022-11-11T17:21:08.362Z,66.48
2022-11-11T17:23:56.314Z,66.62
2022-11-11T17:26:52.120Z,66.67
2022-11-11T17:29:45.918Z,66.77
2022-11-11T17:33:02.735Z,66.85
2022-11-11T17:35:55.175Z,66.73
2022-11-11T17:38:51.719Z,66.76
2022-11-11T17:41:50.155Z,66.84
2022-11-11T17:44:38.387Z,66.92
2022-11-11T17:47:35.898Z,66.96
2022-11-11T17:50:27.369Z,67.20
2022-11-11T17:53:18.888Z,67.38
2022-11-11T17:56:17.377Z,67.46
2022-11-11T17:59:25.795Z,67.46
2022-11-11T18:02:22.626Z,67.47
2022-11-11T18:05:11.056Z,67.58
2022-11-11T18:08:06.440Z,67.57
2022-11-11T18:11:11.524Z,67.67
2022-11-11T18:14:01.583Z,67.78
2022-11-11T18:16:49.715Z,67.88
2022-11-11T18:20:03.775Z,67.97
2022-11-11T18:22:58.314Z,68.14
2022-11-11T18:25:46.646Z,68.20
2022-11-11T18:28:37.909Z,68.37
2022-11-11T18:31:30.769Z,68.36
2022-11-11T18:34:29.420Z,68.44
2022-11-11T18:37:24.838Z,68.51
2022-11-11T18:40:23.877Z,68.54
2022-11-11T18:43:11.958Z,68.54
2022-11-11T18:46:07.825Z,68.66
2022-11-11T18:49:02.617Z,68.76
2022-11-11T18:51:53.739Z,68.85
2022-11-11T18:54:41.763Z,68.86
2022-11-11T18:57:36.789Z,68.86
2022-11-11T19:00:29.249Z,68.96
2022-11-11T19:03:22.285Z,68.81
2022-11-11T19:06:14.261Z,68.90
2022-11-11T19:09:42.125Z,69.06
2022-11-11T19:12:30.525Z,69.07
2022-11-11T19:15:18.426Z,69.02
2022-11-11T19:18:06.810Z,68.98
2022-11-11T19:20:55.038Z,68.84
2022-11-11T19:23:46.377Z,68.72
2022-11-11T19:26:38.165Z,68.51
2022-11-11T19:29:26.199Z,68.44
2022-11-11T19:32:14.458Z,68.52
2022-11-11T19:35:02.712Z,68.45
2022-11-11T19:38:23.833Z,68.56
2022-11-11T19:41:27.142Z,68.61
2022-11-11T19:44:18.934Z,68.76
2022-11-11T19:47:17.846Z,68.74
2022-11-11T19:53:57.298Z,68.84
2022-11-11T19:57:11.347Z,68.88
2022-11-11T19:59:59.739Z,68.92
2022-11-11T20:02:50.378Z,68.94
2022-11-11T20:05:44.675Z,68.83
2022-11-11T20:08:36.883Z,68.81
2022-11-11T20:11:32.691Z,68.74
2022-11-11T20:14:25.905Z,68.69
2022-11-11T20:17:18.510Z,68.60
2022-11-11T20:20:12.708Z,68.45
2022-11-11T20:23:07.343Z,68.47
2022-11-11T20:26:03.635Z,68.44
2022-11-11T20:28:59.190Z,68.56
2022-11-11T20:31:49.569Z,68.61
2022-11-11T20:34:45.895Z,68.73
2022-11-11T20:37:40.346Z,68.82
2022-11-11T20:40:31.801Z,68.84
2022-11-11T20:43:31.739Z,68.93
2022-11-11T20:46:26.843Z,69.15
2022-11-11T20:49:18.628Z,69.44
2022-11-11T20:52:16.256Z,69.62
2022-11-11T20:55:13.313Z,69.59
2022-11-11T20:58:04.017Z,69.64
2022-11-11T21:01:22.193Z,69.64
2022-11-11T21:04:11.280Z,69.69
2022-11-11T21:07:13.234Z,69.69
2022-11-11T21:10:37.796Z,69.80
2022-11-11T21:13:34.289Z,69.75
2022-11-11T21:16:47.051Z,69.79
2022-11-11T21:20:11.529Z,70.12
2022-11-11T21:23:16.373Z,70.60
2022-11-11T21:26:08.536Z,70.88
2022-11-11T21:28:57.997Z,70.69
2022-11-11T21:31:52.973Z,70.59
2022-11-11T21:34:45.738Z,70.48
2022-11-11T21:37:35.504Z,70.38
2022-11-11T21:40:42.851Z,70.37
2022-11-11T21:43:44.409Z,70.28
2022-11-11T21:46:36.044Z,70.22
2022-11-11T21:49:46.197Z,70.22
2022-11-11T21:52:37.138Z,70.18
2022-11-11T21:55:32.954Z,70.12
2022-11-11T21:58:21.152Z,70.00
2022-11-11T22:01:27.542Z,70.14
2022-11-11T22:04:18.539Z,70.23
2022-11-11T22:07:16.481Z,70.22
2022-11-11T22:10:06.926Z,70.32
2022-11-11T22:13:03.256Z,70.24
2022-11-11T22:16:00.306Z,70.18
2022-11-11T22:18:52.840Z,70.29
2022-11-11T22:21:47.120Z,70.52
2022-11-11T22:24:37.360Z,70.68
2022-11-11T22:27:46.493Z,70.73
2022-11-11T22:30:35.354Z,70.79
2022-11-11T22:33:26.425Z,70.74
2022-11-11T22:36:21.862Z,70.87
2022-11-11T22:39:21.790Z,71.00
2022-11-11T22:42:09.605Z,70.99
2022-11-11T22:44:58.683Z,71.04
2022-11-11T22:47:50.925Z,71.01
2022-11-11T22:50:45.843Z,71.07
2022-11-11T22:53:34.172Z,70.99
2022-11-11T22:56:22.377Z,70.92
2022-11-11T22:59:10.040Z,70.92
2022-11-11T23:01:58.113Z,71.09
2022-11-11T23:04:47.084Z,71.23
2022-11-11T23:07:39.122Z,71.22
2022-11-11T23:10:27.122Z,71.22
2022-11-11T23:13:18.150Z,71.32
2022-11-11T23:16:09.994Z,71.41
2022-11-11T23:19:01.812Z,71.51
2022-11-11T23:21:49.941Z,71.60
2022-11-11T23:24:44.103Z,71.62
2022-11-11T23:27:33.298Z,71.64
2022-11-11T23:30:23.584Z,71.68
2022-11-11T23:33:11.534Z,71.62
2022-11-11T23:36:04.694Z,71.61
2022-11-11T23:38:53.216Z,71.69
2022-11-11T23:41:41.124Z,71.74
2022-11-11T23:44:28.734Z,71.79
2022-11-11T23:47:16.668Z,71.83
2022-11-11T23:50:08.021Z,71.89
2022-11-11T23:52:56.679Z,71.80
2022-11-11T23:55:45.075Z,71.80
2022-11-11T23:58:33.238Z,71.89
